sensor_id;sensor_type;location;lat;lon;timestamp;temperature;humidity
23685;DHT22;12020;51.384;6.908;2023-05-08T00:01:38;16.30;99.90
23685;DHT22;12020;51.384;6.908;2023-05-08T00:04:04;16.30;99.90
23685;DHT22;12020;51.384;6.908;2023-05-08T00:06:34;16.30;99.90
23685;DHT22;12020;51.384;6.908;2023-05-08T00:09:02;16.30;99.90
23685;DHT22;12020;51.384;6.908;2023-05-08T00:11:32;16.30;99.90
23685;DHT22;12020;51.384;6.908;2023-05-08T00:14:03;16.20;99.90
23685;DHT22;12020;51.384;6.908;2023-05-08T00:16:37;16.10;99.90
23685;DHT22;12020;51.384;6.908;2023-05-08T00:19:12;16.10;99.90
23685;DHT22;12020;51.384;6.908;2023-05-08T00:21:41;16.10;99.90
23685;DHT22;12020;51.384;6.908;2023-05-08T00:24:17;16.10;99.90
23685;DHT22;12020;51.384;6.908;2023-05-08T00:26:52;16.10;99.90
23685;DHT22;12020;51.384;6.908;2023-05-08T00:29:19;16.10;99.90
23685;DHT22;12020;51.384;6.908;2023-05-08T00:31:59;16.10;99.90
23685;DHT22;12020;51.384;6.908;2023-05-08T00:34:31;16.10;99.90
23685;DHT22;12020;51.384;6.908;2023-05-08T00:36:57;16.10;99.90
23685;DHT22;12020;51.384;6.908;2023-05-08T00:39:25;16.10;99.90
23685;DHT22;12020;51.384;6.908;2023-05-08T00:41:57;16.00;99.90
23685;DHT22;12020;51.384;6.908;2023-05-08T00:44:28;16.00;99.90
23685;DHT22;12020;51.384;6.908;2023-05-08T00:46:56;15.90;99.90
23685;DHT22;12020;51.384;6.908;2023-05-08T00:49:25;15.90;99.90
23685;DHT22;12020;51.384;6.908;2023-05-08T00:51:54;15.90;99.90
23685;DHT22;12020;51.384;6.908;2023-05-08T00:54:24;15.90;99.90
23685;DHT22;12020;51.384;6.908;2023-05-08T00:56:55;15.90;99.90
23685;DHT22;12020;51.384;6.908;2023-05-08T00:59:21;15.90;99.90
23685;DHT22;12020;51.384;6.908;2023-05-08T01:01:57;15.90;99.90
23685;DHT22;12020;51.384;6.908;2023-05-08T01:04:33;15.90;99.90
23685;DHT22;12020;51.384;6.908;2023-05-08T01:07:02;15.80;99.90
23685;DHT22;12020;51.384;6.908;2023-05-08T01:09:33;15.80;99.90
23685;DHT22;12020;51.384;6.908;2023-05-08T01:20:33;15.70;99.90
23685;DHT22;12020;51.384;6.908;2023-05-08T01:34:34;15.60;99.90
23685;DHT22;12020;51.384;6.908;2023-05-08T01:37:16;15.70;99.90
23685;DHT22;12020;51.384;6.908;2023-05-08T01:45:02;15.70;99.90
23685;DHT22;12020;51.384;6.908;2023-05-08T01:47:37;15.60;99.90
23685;DHT22;12020;51.384;6.908;2023-05-08T01:50:20;15.60;99.90
23685;DHT22;12020;51.384;6.908;2023-05-08T01:52:52;15.60;99.90
23685;DHT22;12020;51.384;6.908;2023-05-08T01:55:34;15.60;99.90
23685;DHT22;12020;51.384;6.908;2023-05-08T01:58:06;15.60;99.90
23685;DHT22;12020;51.384;6.908;2023-05-08T02:00:33;15.60;99.90
23685;DHT22;12020;51.384;6.908;2023-05-08T02:03:04;15.60;99.90
23685;DHT22;12020;51.384;6.908;2023-05-08T02:05:36;15.50;99.90
23685;DHT22;12020;51.384;6.908;2023-05-08T02:08:07;15.60;99.90
23685;DHT22;12020;51.384;6.908;2023-05-08T02:10:48;15.60;99.90
23685;DHT22;12020;51.384;6.908;2023-05-08T02:13:20;15.60;99.90
23685;DHT22;12020;51.384;6.908;2023-05-08T02:15:57;15.60;99.90
23685;DHT22;12020;51.384;6.908;2023-05-08T02:18:35;15.50;99.90
23685;DHT22;12020;51.384;6.908;2023-05-08T02:21:08;15.50;99.90
23685;DHT22;12020;51.384;6.908;2023-05-08T02:23:37;15.50;99.90
23685;DHT22;12020;51.384;6.908;2023-05-08T02:26:07;15.40;99.90
23685;DHT22;12020;51.384;6.908;2023-05-08T02:28:38;15.40;99.90
23685;DHT22;12020;51.384;6.908;2023-05-08T02:31:13;15.40;99.90
23685;DHT22;12020;51.384;6.908;2023-05-08T02:33:41;15.30;99.90
23685;DHT22;12020;51.384;6.908;2023-05-08T02:36:15;15.30;99.90
23685;DHT22;12020;51.384;6.908;2023-05-08T02:39:00;15.30;99.90
23685;DHT22;12020;51.384;6.908;2023-05-08T02:41:29;15.30;99.90
23685;DHT22;12020;51.384;6.908;2023-05-08T02:44:02;15.20;99.90
23685;DHT22;12020;51.384;6.908;2023-05-08T02:46:51;15.20;99.90
23685;DHT22;12020;51.384;6.908;2023-05-08T02:49:54;15.20;99.90
23685;DHT22;12020;51.384;6.908;2023-05-08T02:52:31;15.20;99.90
23685;DHT22;12020;51.384;6.908;2023-05-08T03:00:57;15.20;99.90
23685;DHT22;12020;51.384;6.908;2023-05-08T03:03:39;15.20;99.90
23685;DHT22;12020;51.384;6.908;2023-05-08T03:06:17;15.30;99.90
23685;DHT22;12020;51.384;6.908;2023-05-08T03:09:04;15.30;99.90
23685;DHT22;12020;51.384;6.908;2023-05-08T03:12:03;15.30;99.90
23685;DHT22;12020;51.384;6.908;2023-05-08T03:14:38;15.30;99.90
23685;DHT22;12020;51.384;6.908;2023-05-08T03:17:09;15.20;99.90
23685;DHT22;12020;51.384;6.908;2023-05-08T03:19:44;15.20;99.90
23685;DHT22;12020;51.384;6.908;2023-05-08T03:22:33;15.10;99.90
23685;DHT22;12020;51.384;6.908;2023-05-08T03:25:03;15.10;99.90
23685;DHT22;12020;51.384;6.908;2023-05-08T03:27:32;15.20;99.90
23685;DHT22;12020;51.384;6.908;2023-05-08T03:30:01;15.10;99.90
23685;DHT22;12020;51.384;6.908;2023-05-08T03:32:47;15.20;99.90
23685;DHT22;12020;51.384;6.908;2023-05-08T03:35:27;15.20;99.90
23685;DHT22;12020;51.384;6.908;2023-05-08T03:37:54;15.10;99.90
23685;DHT22;12020;51.384;6.908;2023-05-08T03:40:21;15.10;99.90
23685;DHT22;12020;51.384;6.908;2023-05-08T03:42:54;15.00;99.90
23685;DHT22;12020;51.384;6.908;2023-05-08T03:45:20;15.00;99.90
23685;DHT22;12020;51.384;6.908;2023-05-08T03:47:48;15.00;99.90
23685;DHT22;12020;51.384;6.908;2023-05-08T03:50:36;15.00;99.90
23685;DHT22;12020;51.384;6.908;2023-05-08T03:53:13;14.90;99.90
23685;DHT22;12020;51.384;6.908;2023-05-08T03:55:39;14.90;99.90
23685;DHT22;12020;51.384;6.908;2023-05-08T04:01:25;15.00;99.90
23685;DHT22;12020;51.384;6.908;2023-05-08T04:09:44;15.00;99.90
23685;DHT22;12020;51.384;6.908;2023-05-08T04:12:36;15.00;99.90
23685;DHT22;12020;51.384;6.908;2023-05-08T04:15:10;15.00;99.90
23685;DHT22;12020;51.384;6.908;2023-05-08T04:18:00;15.00;99.90
23685;DHT22;12020;51.384;6.908;2023-05-08T04:20:30;15.00;99.90
23685;DHT22;12020;51.384;6.908;2023-05-08T04:22:57;15.00;99.90
23685;DHT22;12020;51.384;6.908;2023-05-08T04:25:27;15.00;99.90
23685;DHT22;12020;51.384;6.908;2023-05-08T04:27:57;15.00;99.90
23685;DHT22;12020;51.384;6.908;2023-05-08T04:30:24;14.90;99.90
23685;DHT22;12020;51.384;6.908;2023-05-08T04:32:51;14.90;99.90
23685;DHT22;12020;51.384;6.908;2023-05-08T04:35:20;14.90;99.90
23685;DHT22;12020;51.384;6.908;2023-05-08T04:37:46;14.90;99.90
23685;DHT22;12020;51.384;6.908;2023-05-08T04:40:15;14.80;99.90
23685;DHT22;12020;51.384;6.908;2023-05-08T04:42:46;14.80;99.90
23685;DHT22;12020;51.384;6.908;2023-05-08T04:45:12;14.80;99.90
23685;DHT22;12020;51.384;6.908;2023-05-08T04:47:43;14.90;99.90
23685;DHT22;12020;51.384;6.908;2023-05-08T04:50:17;14.90;99.90
23685;DHT22;12020;51.384;6.908;2023-05-08T04:52:54;14.90;99.90
23685;DHT22;12020;51.384;6.908;2023-05-08T04:55:41;14.90;99.90
23685;DHT22;12020;51.384;6.908;2023-05-08T04:58:09;14.90;99.90
23685;DHT22;12020;51.384;6.908;2023-05-08T05:00:37;14.90;99.90
23685;DHT22;12020;51.384;6.908;2023-05-08T05:03:06;15.00;99.90
23685;DHT22;12020;51.384;6.908;2023-05-08T05:05:34;15.00;99.90
23685;DHT22;12020;51.384;6.908;2023-05-08T05:08:12;15.00;99.90
23685;DHT22;12020;51.384;6.908;2023-05-08T05:10:41;15.10;99.90
23685;DHT22;12020;51.384;6.908;2023-05-08T05:13:15;15.10;99.90
23685;DHT22;12020;51.384;6.908;2023-05-08T05:15:52;15.20;99.90
23685;DHT22;12020;51.384;6.908;2023-05-08T05:18:25;15.20;99.90
23685;DHT22;12020;51.384;6.908;2023-05-08T05:21:01;15.30;99.90
23685;DHT22;12020;51.384;6.908;2023-05-08T05:23:33;15.30;99.90
23685;DHT22;12020;51.384;6.908;2023-05-08T05:26:19;15.30;99.90
23685;DHT22;12020;51.384;6.908;2023-05-08T05:28:47;15.40;99.90
23685;DHT22;12020;51.384;6.908;2023-05-08T05:31:26;15.40;99.90
23685;DHT22;12020;51.384;6.908;2023-05-08T05:33:55;15.40;99.90
23685;DHT22;12020;51.384;6.908;2023-05-08T05:36:29;15.40;99.90
23685;DHT22;12020;51.384;6.908;2023-05-08T05:39:05;15.40;99.90
23685;DHT22;12020;51.384;6.908;2023-05-08T05:41:32;15.50;99.90
23685;DHT22;12020;51.384;6.908;2023-05-08T06:14:53;16.20;99.90
23685;DHT22;12020;51.384;6.908;2023-05-08T06:17:18;16.20;99.90
23685;DHT22;12020;51.384;6.908;2023-05-08T06:19:44;16.30;99.90
23685;DHT22;12020;51.384;6.908;2023-05-08T06:22:18;16.30;99.90
23685;DHT22;12020;51.384;6.908;2023-05-08T06:24:43;16.30;99.90
23685;DHT22;12020;51.384;6.908;2023-05-08T06:27:10;16.30;99.90
23685;DHT22;12020;51.384;6.908;2023-05-08T06:29:36;16.30;99.90
23685;DHT22;12020;51.384;6.908;2023-05-08T06:32:03;16.30;99.90
23685;DHT22;12020;51.384;6.908;2023-05-08T06:34:29;16.30;99.90
23685;DHT22;12020;51.384;6.908;2023-05-08T06:36:55;16.30;99.90
23685;DHT22;12020;51.384;6.908;2023-05-08T06:39:21;16.30;99.90
23685;DHT22;12020;51.384;6.908;2023-05-08T06:41:48;16.30;99.90
23685;DHT22;12020;51.384;6.908;2023-05-08T06:44:14;16.30;99.90
23685;DHT22;12020;51.384;6.908;2023-05-08T06:46:41;16.40;99.90
23685;DHT22;12020;51.384;6.908;2023-05-08T06:49:07;16.40;99.90
23685;DHT22;12020;51.384;6.908;2023-05-08T06:51:33;16.40;99.90
23685;DHT22;12020;51.384;6.908;2023-05-08T06:54:01;16.40;99.90
23685;DHT22;12020;51.384;6.908;2023-05-08T06:56:27;16.50;99.90
23685;DHT22;12020;51.384;6.908;2023-05-08T06:58:57;16.50;99.90
23685;DHT22;12020;51.384;6.908;2023-05-08T07:01:27;16.50;99.90
23685;DHT22;12020;51.384;6.908;2023-05-08T07:03:53;16.50;99.90
23685;DHT22;12020;51.384;6.908;2023-05-08T07:06:19;16.50;99.90
23685;DHT22;12020;51.384;6.908;2023-05-08T07:08:46;16.50;99.90
23685;DHT22;12020;51.384;6.908;2023-05-08T07:11:12;16.50;99.90
23685;DHT22;12020;51.384;6.908;2023-05-08T07:13:38;16.50;99.90
23685;DHT22;12020;51.384;6.908;2023-05-08T07:16:10;16.50;99.90
23685;DHT22;12020;51.384;6.908;2023-05-08T07:18:38;16.60;99.90
23685;DHT22;12020;51.384;6.908;2023-05-08T07:21:03;16.60;99.90
23685;DHT22;12020;51.384;6.908;2023-05-08T07:23:29;16.60;99.90
23685;DHT22;12020;51.384;6.908;2023-05-08T07:25:55;16.70;99.90
23685;DHT22;12020;51.384;6.908;2023-05-08T07:28:21;16.70;99.90
23685;DHT22;12020;51.384;6.908;2023-05-08T07:30:48;16.80;99.90
23685;DHT22;12020;51.384;6.908;2023-05-08T07:33:13;16.90;99.90
23685;DHT22;12020;51.384;6.908;2023-05-08T07:35:40;16.90;99.90
23685;DHT22;12020;51.384;6.908;2023-05-08T07:38:07;17.00;99.90
23685;DHT22;12020;51.384;6.908;2023-05-08T07:40:34;17.00;99.90
23685;DHT22;12020;51.384;6.908;2023-05-08T07:43:00;17.10;99.90
23685;DHT22;12020;51.384;6.908;2023-05-08T07:45:26;17.10;99.90
23685;DHT22;12020;51.384;6.908;2023-05-08T07:47:56;17.20;99.90
23685;DHT22;12020;51.384;6.908;2023-05-08T07:50:25;17.20;99.90
23685;DHT22;12020;51.384;6.908;2023-05-08T07:52:51;17.30;99.90
23685;DHT22;12020;51.384;6.908;2023-05-08T07:55:19;17.30;99.90
23685;DHT22;12020;51.384;6.908;2023-05-08T07:57:46;17.40;99.90
23685;DHT22;12020;51.384;6.908;2023-05-08T08:00:13;17.50;99.90
23685;DHT22;12020;51.384;6.908;2023-05-08T08:02:40;17.60;99.90
23685;DHT22;12020;51.384;6.908;2023-05-08T08:05:06;17.60;99.90
23685;DHT22;12020;51.384;6.908;2023-05-08T08:07:32;17.70;99.90
23685;DHT22;12020;51.384;6.908;2023-05-08T08:09:58;17.80;99.90
23685;DHT22;12020;51.384;6.908;2023-05-08T08:12:26;17.80;99.90
23685;DHT22;12020;51.384;6.908;2023-05-08T08:14:52;17.90;99.90
23685;DHT22;12020;51.384;6.908;2023-05-08T08:17:19;17.90;99.90
23685;DHT22;12020;51.384;6.908;2023-05-08T08:19:45;18.00;99.90
23685;DHT22;12020;51.384;6.908;2023-05-08T08:22:11;18.10;99.90
23685;DHT22;12020;51.384;6.908;2023-05-08T08:24:37;18.10;99.90
23685;DHT22;12020;51.384;6.908;2023-05-08T08:27:03;18.20;99.90
23685;DHT22;12020;51.384;6.908;2023-05-08T08:29:29;18.30;99.90
23685;DHT22;12020;51.384;6.908;2023-05-08T08:31:55;18.40;99.90
23685;DHT22;12020;51.384;6.908;2023-05-08T08:34:21;18.50;99.90
23685;DHT22;12020;51.384;6.908;2023-05-08T08:36:47;18.70;99.90
23685;DHT22;12020;51.384;6.908;2023-05-08T08:39:14;18.90;99.90
23685;DHT22;12020;51.384;6.908;2023-05-08T08:41:40;19.20;99.90
23685;DHT22;12020;51.384;6.908;2023-05-08T08:44:06;19.60;99.90
23685;DHT22;12020;51.384;6.908;2023-05-08T08:46:32;20.00;99.90
23685;DHT22;12020;51.384;6.908;2023-05-08T08:49:02;20.10;99.90
23685;DHT22;12020;51.384;6.908;2023-05-08T08:51:42;20.20;99.90
23685;DHT22;12020;51.384;6.908;2023-05-08T08:54:14;20.20;99.90
23685;DHT22;12020;51.384;6.908;2023-05-08T08:56:44;20.10;99.90
23685;DHT22;12020;51.384;6.908;2023-05-08T08:59:12;20.10;99.90
23685;DHT22;12020;51.384;6.908;2023-05-08T09:01:40;20.10;99.90
23685;DHT22;12020;51.384;6.908;2023-05-08T09:04:07;20.00;99.90
23685;DHT22;12020;51.384;6.908;2023-05-08T09:06:35;20.00;99.90
23685;DHT22;12020;51.384;6.908;2023-05-08T09:09:02;20.00;99.90
23685;DHT22;12020;51.384;6.908;2023-05-08T09:11:28;20.00;99.90
23685;DHT22;12020;51.384;6.908;2023-05-08T09:13:54;20.10;99.90
23685;DHT22;12020;51.384;6.908;2023-05-08T09:16:21;20.10;99.90
23685;DHT22;12020;51.384;6.908;2023-05-08T09:18:47;20.10;99.90
23685;DHT22;12020;51.384;6.908;2023-05-08T09:21:13;20.10;99.90
23685;DHT22;12020;51.384;6.908;2023-05-08T09:23:55;20.00;99.90
23685;DHT22;12020;51.384;6.908;2023-05-08T09:26:35;19.90;99.90
23685;DHT22;12020;51.384;6.908;2023-05-08T09:29:17;19.80;99.90
23685;DHT22;12020;51.384;6.908;2023-05-08T09:31:47;19.70;99.90
23685;DHT22;12020;51.384;6.908;2023-05-08T09:34:28;19.60;99.90
23685;DHT22;12020;51.384;6.908;2023-05-08T09:37:15;19.50;99.90
23685;DHT22;12020;51.384;6.908;2023-05-08T09:39:41;19.40;99.90
23685;DHT22;12020;51.384;6.908;2023-05-08T09:42:08;19.30;99.90
23685;DHT22;12020;51.384;6.908;2023-05-08T09:47:21;19.20;99.90
23685;DHT22;12020;51.384;6.908;2023-05-08T09:50:06;19.10;99.90
23685;DHT22;12020;51.384;6.908;2023-05-08T09:52:36;19.00;99.90
23685;DHT22;12020;51.384;6.908;2023-05-08T09:55:08;19.00;99.90
23685;DHT22;12020;51.384;6.908;2023-05-08T09:57:38;18.90;99.90
23685;DHT22;12020;51.384;6.908;2023-05-08T10:00:09;18.90;99.90
23685;DHT22;12020;51.384;6.908;2023-05-08T10:02:41;18.80;99.90
23685;DHT22;12020;51.384;6.908;2023-05-08T10:05:33;18.80;99.90
23685;DHT22;12020;51.384;6.908;2023-05-08T10:08:21;18.80;99.90
23685;DHT22;12020;51.384;6.908;2023-05-08T10:10:48;18.70;99.90
23685;DHT22;12020;51.384;6.908;2023-05-08T10:13:14;18.70;99.90
23685;DHT22;12020;51.384;6.908;2023-05-08T10:15:42;18.70;99.90
23685;DHT22;12020;51.384;6.908;2023-05-08T10:18:09;18.70;99.90
23685;DHT22;12020;51.384;6.908;2023-05-08T10:20:41;18.70;99.90
23685;DHT22;12020;51.384;6.908;2023-05-08T10:23:13;18.60;99.90
23685;DHT22;12020;51.384;6.908;2023-05-08T10:25:44;18.60;99.90
23685;DHT22;12020;51.384;6.908;2023-05-08T10:28:23;18.60;99.90
23685;DHT22;12020;51.384;6.908;2023-05-08T10:30:55;18.60;99.90
23685;DHT22;12020;51.384;6.908;2023-05-08T10:33:29;18.70;99.90
23685;DHT22;12020;51.384;6.908;2023-05-08T10:35:59;18.70;99.90
23685;DHT22;12020;51.384;6.908;2023-05-08T10:38:26;18.70;99.90
23685;DHT22;12020;51.384;6.908;2023-05-08T10:40:59;18.70;99.90
23685;DHT22;12020;51.384;6.908;2023-05-08T10:43:28;18.80;99.90
23685;DHT22;12020;51.384;6.908;2023-05-08T10:45:54;18.90;99.90
23685;DHT22;12020;51.384;6.908;2023-05-08T10:53:38;19.10;99.90
23685;DHT22;12020;51.384;6.908;2023-05-08T10:56:05;19.20;99.90
23685;DHT22;12020;51.384;6.908;2023-05-08T10:58:36;19.30;99.90
23685;DHT22;12020;51.384;6.908;2023-05-08T11:01:10;19.40;99.90
23685;DHT22;12020;51.384;6.908;2023-05-08T11:03:43;19.40;99.90
23685;DHT22;12020;51.384;6.908;2023-05-08T11:06:12;19.50;99.90
23685;DHT22;12020;51.384;6.908;2023-05-08T11:08:46;19.60;99.90
23685;DHT22;12020;51.384;6.908;2023-05-08T11:11:31;19.60;99.90
23685;DHT22;12020;51.384;6.908;2023-05-08T11:19:26;19.70;99.90
23685;DHT22;12020;51.384;6.908;2023-05-08T11:22:13;19.80;99.90
23685;DHT22;12020;51.384;6.908;2023-05-08T11:25:09;19.90;99.90
23685;DHT22;12020;51.384;6.908;2023-05-08T11:35:56;20.30;99.90
23685;DHT22;12020;51.384;6.908;2023-05-08T11:38:34;20.40;99.90
23685;DHT22;12020;51.384;6.908;2023-05-08T11:46:06;20.80;99.90
23685;DHT22;12020;51.384;6.908;2023-05-08T11:48:35;21.00;99.90
23685;DHT22;12020;51.384;6.908;2023-05-08T11:51:02;21.20;99.90
23685;DHT22;12020;51.384;6.908;2023-05-08T11:53:28;21.40;99.90
23685;DHT22;12020;51.384;6.908;2023-05-08T11:55:58;21.50;99.90
23685;DHT22;12020;51.384;6.908;2023-05-08T11:58:31;21.50;99.90
23685;DHT22;12020;51.384;6.908;2023-05-08T12:00:58;21.60;99.90
23685;DHT22;12020;51.384;6.908;2023-05-08T12:03:25;21.70;99.90
23685;DHT22;12020;51.384;6.908;2023-05-08T12:05:56;21.70;99.90
23685;DHT22;12020;51.384;6.908;2023-05-08T12:08:23;21.80;99.90
23685;DHT22;12020;51.384;6.908;2023-05-08T12:13:22;21.90;99.90
23685;DHT22;12020;51.384;6.908;2023-05-08T12:15:56;21.80;99.90
23685;DHT22;12020;51.384;6.908;2023-05-08T12:18:24;21.80;99.90
23685;DHT22;12020;51.384;6.908;2023-05-08T12:20:59;21.90;99.90
23685;DHT22;12020;51.384;6.908;2023-05-08T12:23:26;21.80;99.90
23685;DHT22;12020;51.384;6.908;2023-05-08T12:25:54;21.80;99.90
23685;DHT22;12020;51.384;6.908;2023-05-08T12:28:23;21.70;99.90
23685;DHT22;12020;51.384;6.908;2023-05-08T12:30:49;21.70;99.90
23685;DHT22;12020;51.384;6.908;2023-05-08T12:33:15;21.70;99.90
23685;DHT22;12020;51.384;6.908;2023-05-08T12:35:41;21.80;99.90
23685;DHT22;12020;51.384;6.908;2023-05-08T12:38:08;21.70;99.90
23685;DHT22;12020;51.384;6.908;2023-05-08T12:40:43;21.80;99.90
23685;DHT22;12020;51.384;6.908;2023-05-08T12:43:12;21.70;99.90
23685;DHT22;12020;51.384;6.908;2023-05-08T12:45:41;21.80;99.90
23685;DHT22;12020;51.384;6.908;2023-05-08T12:48:13;21.80;99.90
23685;DHT22;12020;51.384;6.908;2023-05-08T12:50:45;21.80;99.90
23685;DHT22;12020;51.384;6.908;2023-05-08T12:53:15;21.80;99.90
23685;DHT22;12020;51.384;6.908;2023-05-08T12:55:52;21.80;99.90
23685;DHT22;12020;51.384;6.908;2023-05-08T12:58:20;21.70;99.90
23685;DHT22;12020;51.384;6.908;2023-05-08T13:00:51;21.60;99.90
23685;DHT22;12020;51.384;6.908;2023-05-08T13:03:30;21.50;99.90
23685;DHT22;12020;51.384;6.908;2023-05-08T13:05:58;21.60;99.90
23685;DHT22;12020;51.384;6.908;2023-05-08T13:08:37;21.50;99.90
23685;DHT22;12020;51.384;6.908;2023-05-08T13:11:05;21.60;99.90
23685;DHT22;12020;51.384;6.908;2023-05-08T13:13:33;21.50;99.90
23685;DHT22;12020;51.384;6.908;2023-05-08T13:16:06;21.60;99.90
23685;DHT22;12020;51.384;6.908;2023-05-08T13:18:33;21.60;99.90
23685;DHT22;12020;51.384;6.908;2023-05-08T13:21:00;21.70;99.90
23685;DHT22;12020;51.384;6.908;2023-05-08T13:23:27;21.70;99.90
23685;DHT22;12020;51.384;6.908;2023-05-08T13:25:54;21.70;99.90
23685;DHT22;12020;51.384;6.908;2023-05-08T13:28:20;21.80;99.90
23685;DHT22;12020;51.384;6.908;2023-05-08T13:30:47;21.80;99.90
23685;DHT22;12020;51.384;6.908;2023-05-08T13:33:14;21.80;99.90
23685;DHT22;12020;51.384;6.908;2023-05-08T13:35:40;21.80;99.90
23685;DHT22;12020;51.384;6.908;2023-05-08T13:38:05;21.80;99.90
23685;DHT22;12020;51.384;6.908;2023-05-08T13:40:31;21.80;99.90
23685;DHT22;12020;51.384;6.908;2023-05-08T13:42:58;21.80;99.90
23685;DHT22;12020;51.384;6.908;2023-05-08T13:45:24;21.80;99.90
23685;DHT22;12020;51.384;6.908;2023-05-08T13:47:50;21.90;99.90
23685;DHT22;12020;51.384;6.908;2023-05-08T13:50:17;21.90;99.90
23685;DHT22;12020;51.384;6.908;2023-05-08T13:52:46;21.90;99.90
23685;DHT22;12020;51.384;6.908;2023-05-08T13:55:13;22.00;99.90
23685;DHT22;12020;51.384;6.908;2023-05-08T13:57:39;21.90;99.90
23685;DHT22;12020;51.384;6.908;2023-05-08T14:00:06;21.90;99.90
23685;DHT22;12020;51.384;6.908;2023-05-08T14:02:39;21.90;99.90
23685;DHT22;12020;51.384;6.908;2023-05-08T14:05:05;21.90;99.90
23685;DHT22;12020;51.384;6.908;2023-05-08T14:07:34;21.90;99.90
23685;DHT22;12020;51.384;6.908;2023-05-08T14:10:00;21.90;99.90
23685;DHT22;12020;51.384;6.908;2023-05-08T14:12:27;22.00;99.90
23685;DHT22;12020;51.384;6.908;2023-05-08T14:14:53;22.10;99.90
23685;DHT22;12020;51.384;6.908;2023-05-08T14:17:18;22.10;99.90
23685;DHT22;12020;51.384;6.908;2023-05-08T14:19:44;22.10;99.90
23685;DHT22;12020;51.384;6.908;2023-05-08T14:22:13;22.10;99.90
23685;DHT22;12020;51.384;6.908;2023-05-08T14:24:39;22.20;99.90
23685;DHT22;12020;51.384;6.908;2023-05-08T14:27:05;22.20;99.90
23685;DHT22;12020;51.384;6.908;2023-05-08T14:29:38;22.10;99.90
23685;DHT22;12020;51.384;6.908;2023-05-08T14:32:04;22.10;99.90
23685;DHT22;12020;51.384;6.908;2023-05-08T14:34:31;22.00;99.90
23685;DHT22;12020;51.384;6.908;2023-05-08T14:36:57;21.90;99.90
23685;DHT22;12020;51.384;6.908;2023-05-08T14:39:23;21.90;99.90
23685;DHT22;12020;51.384;6.908;2023-05-08T14:41:48;21.80;99.90
23685;DHT22;12020;51.384;6.908;2023-05-08T14:44:16;21.80;99.90
23685;DHT22;12020;51.384;6.908;2023-05-08T14:46:41;21.90;99.90
23685;DHT22;12020;51.384;6.908;2023-05-08T14:49:07;22.00;99.90
23685;DHT22;12020;51.384;6.908;2023-05-08T14:51:33;22.00;99.90
23685;DHT22;12020;51.384;6.908;2023-05-08T14:54:01;22.00;99.90
23685;DHT22;12020;51.384;6.908;2023-05-08T14:56:27;22.00;99.90
23685;DHT22;12020;51.384;6.908;2023-05-08T14:58:53;21.90;99.90
23685;DHT22;12020;51.384;6.908;2023-05-08T15:01:20;21.90;99.90
23685;DHT22;12020;51.384;6.908;2023-05-08T15:03:48;21.90;99.90
23685;DHT22;12020;51.384;6.908;2023-05-08T15:06:27;21.90;99.90
23685;DHT22;12020;51.384;6.908;2023-05-08T15:08:53;21.80;99.90
23685;DHT22;12020;51.384;6.908;2023-05-08T15:11:26;21.80;99.90
23685;DHT22;12020;51.384;6.908;2023-05-08T15:14:11;21.80;99.90
23685;DHT22;12020;51.384;6.908;2023-05-08T15:37:53;21.40;99.90
23685;DHT22;12020;51.384;6.908;2023-05-08T15:40:26;21.40;99.90
23685;DHT22;12020;51.384;6.908;2023-05-08T15:43:04;21.40;99.90
23685;DHT22;12020;51.384;6.908;2023-05-08T15:45:41;21.40;99.90
23685;DHT22;12020;51.384;6.908;2023-05-08T15:51:18;21.30;99.90
23685;DHT22;12020;51.384;6.908;2023-05-08T15:53:49;21.30;99.90
23685;DHT22;12020;51.384;6.908;2023-05-08T15:56:22;21.20;99.90
23685;DHT22;12020;51.384;6.908;2023-05-08T15:58:53;21.10;99.90
23685;DHT22;12020;51.384;6.908;2023-05-08T16:01:19;21.00;99.90
23685;DHT22;12020;51.384;6.908;2023-05-08T16:03:51;20.90;99.90
23685;DHT22;12020;51.384;6.908;2023-05-08T16:06:30;20.80;99.90
23685;DHT22;12020;51.384;6.908;2023-05-08T16:08:58;20.80;99.90
23685;DHT22;12020;51.384;6.908;2023-05-08T16:11:33;20.70;99.90
23685;DHT22;12020;51.384;6.908;2023-05-08T16:14:07;20.60;99.90
23685;DHT22;12020;51.384;6.908;2023-05-08T16:16:36;20.60;99.90
23685;DHT22;12020;51.384;6.908;2023-05-08T16:19:05;20.50;99.90
23685;DHT22;12020;51.384;6.908;2023-05-08T16:21:33;20.50;99.90
23685;DHT22;12020;51.384;6.908;2023-05-08T16:23:59;20.50;99.90
23685;DHT22;12020;51.384;6.908;2023-05-08T16:26:42;20.40;99.90
23685;DHT22;12020;51.384;6.908;2023-05-08T16:29:12;20.40;99.90
23685;DHT22;12020;51.384;6.908;2023-05-08T16:31:41;20.40;99.90
23685;DHT22;12020;51.384;6.908;2023-05-08T16:34:23;20.40;99.90
23685;DHT22;12020;51.384;6.908;2023-05-08T16:36:55;20.30;99.90
23685;DHT22;12020;51.384;6.908;2023-05-08T16:39:40;20.30;99.90
23685;DHT22;12020;51.384;6.908;2023-05-08T16:42:08;20.30;99.90
23685;DHT22;12020;51.384;6.908;2023-05-08T16:44:39;20.30;99.90
23685;DHT22;12020;51.384;6.908;2023-05-08T16:47:08;20.20;99.90
23685;DHT22;12020;51.384;6.908;2023-05-08T16:49:43;20.10;99.90
23685;DHT22;12020;51.384;6.908;2023-05-08T16:52:13;20.10;99.90
23685;DHT22;12020;51.384;6.908;2023-05-08T16:54:51;20.00;99.90
23685;DHT22;12020;51.384;6.908;2023-05-08T16:57:28;19.90;99.90
23685;DHT22;12020;51.384;6.908;2023-05-08T17:00:00;19.90;99.90
23685;DHT22;12020;51.384;6.908;2023-05-08T17:02:39;19.80;99.90
23685;DHT22;12020;51.384;6.908;2023-05-08T17:05:05;19.80;99.90
23685;DHT22;12020;51.384;6.908;2023-05-08T17:07:35;19.80;99.90
23685;DHT22;12020;51.384;6.908;2023-05-08T17:10:00;19.70;99.90
23685;DHT22;12020;51.384;6.908;2023-05-08T17:12:28;19.70;99.90
23685;DHT22;12020;51.384;6.908;2023-05-08T17:14:53;19.60;99.90
23685;DHT22;12020;51.384;6.908;2023-05-08T17:17:20;19.60;99.90
23685;DHT22;12020;51.384;6.908;2023-05-08T17:19:46;19.60;99.90
23685;DHT22;12020;51.384;6.908;2023-05-08T17:22:12;19.60;99.90
23685;DHT22;12020;51.384;6.908;2023-05-08T17:24:38;19.60;99.90
23685;DHT22;12020;51.384;6.908;2023-05-08T17:27:04;19.60;99.90
23685;DHT22;12020;51.384;6.908;2023-05-08T17:29:32;19.60;99.90
23685;DHT22;12020;51.384;6.908;2023-05-08T17:31:59;19.60;99.90
23685;DHT22;12020;51.384;6.908;2023-05-08T17:34:24;19.60;99.90
23685;DHT22;12020;51.384;6.908;2023-05-08T17:36:51;19.60;99.90
23685;DHT22;12020;51.384;6.908;2023-05-08T17:39:17;19.60;99.90
23685;DHT22;12020;51.384;6.908;2023-05-08T17:41:47;19.70;99.90
23685;DHT22;12020;51.384;6.908;2023-05-08T17:44:17;19.70;99.90
23685;DHT22;12020;51.384;6.908;2023-05-08T17:46:51;19.70;99.90
23685;DHT22;12020;51.384;6.908;2023-05-08T17:49:18;19.70;99.90
23685;DHT22;12020;51.384;6.908;2023-05-08T17:51:52;19.70;99.90
23685;DHT22;12020;51.384;6.908;2023-05-08T17:54:21;19.70;99.90
23685;DHT22;12020;51.384;6.908;2023-05-08T17:56:51;19.70;99.90